Pagrindinis puslapis
METAR-TAF:

METAR-TAF

Oro uostai :

Oranžas, Prancūzija

platuma: 44-08N, ilguma: 004-50E, Aukštis: 60 m

Dabartinis oras

Ataskaita buvo paskelbta 12 minutes, ne 10:30 UTC
Ramus vėjas
Temperatūra 11°C
Drėgmė 82%
Slėgis 1023 hPa
Matomumas 10 km arba daugiau

METAR: LFMO 251030Z AUTO 00000KT 9999 ////// 11/08 Q1023

Laikas: 11:42 (10:42 UTC)

Prognozė

Ataskaita buvo paskelbta 2 valandos ir 42 minutes, ne 08:00 UTC
Prognozė galioja nuo 25 metu 09 UTC su 26 metu 09 UTC
Vėjas 2 kt nuo kintamojo kryptimis
Matomumas: 8000 m
Su prošvaistėmis ne aukštis 3000 ft
Su prošvaistėmis ne aukštis 5000 ft
Laikinai
nuo 25 metu 09 UTC su 25 metu 13 UTC
Matomumas: 5000 m
Su prošvaistėmis ne aukštis 1500 ft
lietus
Laikinai
nuo 25 metu 18 UTC su 26 metu 06 UTC
Matomumas: 3000 m
rūkana

TAF: LFMO 250800Z 2509/2609 VRB02KT 8000 BKN030 BKN050 TEMPO 2509/2513 5000 -RA BKN015 TEMPO 2518/2606 3000 BR

Orai ataskaitas ir orų prognozės (METAR, TAF).

turimą stotys yra geltonos ir raudonos taškus žemėlapyje.

Perkelti pele per norėdami pamatyti stoties vardą.

Tada spustelėkite, norėdami matyti oro stebėjimo ir prognozės.

Norėdami pakeisti žemėlapį: spustelėkite ant žalios mygtukų su juodo kryžiaus žemyn,; žalią mygtuką su brūkšneliu, jei norite nutolinti; arba žalių rodyklių gretimoms žemėlapius.


METAR-TAF: